To NAV CANADA Home Page Login to a new session Search on AWWS site Feedback and Comments Disclaimer Vers la page française équivalente Tips FAQ What's new on the site To the Forecasts and Observations / NOTAM section To "File a Flight Plan" website Publications and other links Update of the User's profile FIC Telephone Numbers My Weather Data Folder Route Weather Data Regional Weather Data Local Weather Data To the Forecasts and Observations / NOTAM section
Request Generated 10/18/2017 at 04:00:20 UTC . Weather information available at that time is displayed.

METAR/TAF

FREDERICTON INTL/NB    (show WxCam)

METAR CYFC 180300Z AUTO 20009KT 9SM OVC090 05/00 A3009 RMK SLP193=
METAR CYFC 180200Z AUTO 20007KT 9SM OVC090 05/M00 A3011 RMK SLP197=
METAR CYFC 180100Z AUTO 19007KT 9SM SCT100 04/M00 A3011 RMK SLP199=

TAF CYFC 172339Z 1800/1812 22005KT P6SM BKN090
FM180200 20008KT P6SM BKN060 TEMPO 1802/1809 P6SM -SHRA
FM180900 27008KT P6SM SCT030
RMK FCST BASED ON AUTO OBS. NXT FCST BY 180600Z=
Your time UTC time
Weather data provided by Environment Canada and NAV CANADA